Time;durP1;ratioP1;P1;durP2;ratioP2;P2;SDS_P1;SDS_P2;PMS_P1;PMS_P2;Temp;Humidity;BMP_temperature;BMP_pressure;BME280_temperature;BME280_humidity;BME280_pressure;Samples;Min_cycle;Max_cycle;Signal;HPM_P1;HPM_P2
2022/09/03 00:00:51;;;;;;;1.35;1.25;;;16.00;69.50;;;;;;4954970;28;20125;-74
2022/09/03 00:03:23;;;;;;;2.33;1.17;;;16.00;69.70;;;;;;4974092;28;20038;-74
2022/09/03 00:06:19;;;;;;;1.57;1.00;;;16.00;69.90;;;;;;4976596;28;20083;-74
2022/09/03 00:09:02;;;;;;;1.10;0.93;;;15.90;69.90;;;;;;4986177;28;20073;-74
2022/09/03 00:11:38;;;;;;;1.58;1.38;;;15.80;70.00;;;;;;4978146;28;20042;-74
2022/09/03 00:14:27;;;;;;;2.03;0.95;;;15.80;70.10;;;;;;4968055;28;20034;-74
2022/09/03 00:17:01;;;;;;;1.33;1.23;;;15.80;70.10;;;;;;4957101;28;20120;-74
2022/09/03 00:19:40;;;;;;;1.55;1.10;;;15.80;70.40;;;;;;4977788;28;20382;-74
2022/09/03 00:22:11;;;;;;;1.00;0.90;;;15.70;70.50;;;;;;4976097;28;20038;-74
2022/09/03 00:24:40;;;;;;;1.80;0.95;;;15.70;70.60;;;;;;4962785;28;20034;-74
2022/09/03 00:27:16;;;;;;;1.67;1.08;;;15.60;70.60;;;;;;4977199;28;20038;-74
2022/09/03 00:30:17;;;;;;;2.55;1.20;;;15.60;70.90;;;;;;4978849;28;20042;-74
2022/09/03 00:33:08;;;;;;;1.88;0.90;;;15.60;71.00;;;;;;4937547;29;20408;-74
2022/09/03 00:35:43;;;;;;;2.90;1.23;;;15.50;71.00;;;;;;4977004;28;20527;-74
2022/09/03 00:38:09;;;;;;;1.40;1.00;;;15.50;71.00;;;;;;4977983;28;20065;-74
2022/09/03 00:40:56;;;;;;;1.42;1.17;;;15.40;71.10;;;;;;4978309;28;20482;-74
2022/09/03 00:43:37;;;;;;;0.90;0.90;;;15.40;71.30;;;;;;4978495;28;20050;-74
2022/09/03 00:46:22;;;;;;;1.23;1.08;;;15.40;71.60;;;;;;4960661;28;21297;-74
2022/09/03 00:49:03;;;;;;;1.65;1.20;;;15.30;71.40;;;;;;4977927;28;20042;-74
2022/09/03 00:51:48;;;;;;;1.58;1.13;;;15.30;71.70;;;;;;4978212;28;20045;-74
2022/09/03 00:54:52;;;;;;;1.23;1.13;;;15.30;71.80;;;;;;4978783;28;20141;-74
2022/09/03 00:57:24;;;;;;;;;;;15.20;71.80;;;;;;4977299;28;20039;-74
2022/09/03 01:00:08;;;;;;;1.20;1.08;;;15.10;71.80;;;;;;4978010;28;19924;-74
2022/09/03 01:02:34;;;;;;;2.13;1.00;;;15.10;71.90;;;;;;4978320;28;20053;-74
2022/09/03 01:05:37;;;;;;;1.73;1.10;;;15.00;72.00;;;;;;4975547;28;20042;-74
2022/09/03 01:08:40;;;;;;;0.80;0.80;;;15.00;72.30;;;;;;4968704;28;20038;-74
2022/09/03 01:11:44;;;;;;;1.13;0.93;;;15.00;72.30;;;;;;4971069;28;20114;-74
2022/09/03 01:14:47;;;;;;;1.70;0.80;;;14.90;72.20;;;;;;4942482;28;20045;-74
2022/09/03 01:17:16;;;;;;;1.90;0.95;;;14.90;72.50;;;;;;4972731;28;20412;-74
2022/09/03 01:19:56;;;;;;;1.25;0.93;;;14.90;72.40;;;;;;4966788;28;20123;-74
2022/09/03 01:22:50;;;;;;;1.20;0.95;;;14.90;72.60;;;;;;4977810;28;20046;-74
2022/09/03 01:25:35;;;;;;;;;;;14.90;72.60;;;;;;4977863;28;20043;-74
2022/09/03 01:28:21;;;;;;;1.15;0.90;;;14.80;72.80;;;;;;4969805;28;19917;-74
2022/09/03 01:31:17;;;;;;;1.00;0.90;;;14.80;72.80;;;;;;4977115;28;20565;-74
2022/09/03 01:33:47;;;;;;;0.90;0.90;;;14.70;72.90;;;;;;4959832;28;20040;-74
2022/09/03 01:36:30;;;;;;;1.15;1.00;;;14.70;73.00;;;;;;4976155;28;20030;-74
2022/09/03 01:39:00;;;;;;;1.33;0.90;;;14.70;73.30;;;;;;4969702;28;20038;-74
2022/09/03 01:44:40;;;;;;;1.00;0.90;;;14.70;73.40;;;;;;4978565;28;20139;-74
2022/09/03 01:47:10;;;;;;;1.25;0.80;;;14.60;73.40;;;;;;4972733;28;20057;-74
2022/09/03 01:49:58;;;;;;;1.42;1.00;;;14.70;73.50;;;;;;4977180;28;20101;-74
2022/09/03 01:52:32;;;;;;;0.75;0.75;;;14.60;73.50;;;;;;4972019;28;20067;-74
2022/09/03 01:55:08;;;;;;;1.00;0.90;;;14.60;73.70;;;;;;4977097;28;20034;-74
2022/09/03 01:57:55;;;;;;;0.95;0.88;;;14.60;73.80;;;;;;4958319;28;20088;-74
2022/09/03 02:00:21;;;;;;;1.00;0.80;;;14.60;73.80;;;;;;4983925;28;20082;-74
2022/09/03 02:02:50;;;;;;;0.80;0.70;;;14.50;73.70;;;;;;4977810;28;20078;-74
2022/09/03 02:05:23;;;;;;;0.93;0.80;;;14.50;73.90;;;;;;4977082;28;20082;-74
2022/09/03 02:08:06;;;;;;;1.23;0.90;;;14.50;74.00;;;;;;4973688;28;20108;-74
2022/09/03 02:10:52;;;;;;;1.63;0.80;;;14.50;74.90;;;;;;4974332;28;20381;-74
2022/09/03 02:13:24;;;;;;;1.17;0.90;;;14.40;74.10;;;;;;4973199;28;20074;-74
2022/09/03 02:15:51;;;;;;;0.90;0.80;;;14.40;74.20;;;;;;4973394;28;20030;-74
2022/09/03 02:18:29;;;;;;;1.42;0.98;;;14.40;74.40;;;;;;4975392;28;20130;-74
2022/09/03 02:20:57;;;;;;;1.15;0.70;;;14.40;74.50;;;;;;4968735;28;20044;-74
2022/09/03 02:23:24;;;;;;;1.98;0.85;;;14.30;74.40;;;;;;4959656;28;20064;-74
2022/09/03 02:25:55;;;;;;;0.80;0.80;;;14.30;74.60;;;;;;4983848;28;20034;-74
2022/09/03 02:28:22;;;;;;;1.00;0.90;;;14.30;74.60;;;;;;4975321;28;20042;-74
2022/09/03 02:30:47;;;;;;;1.40;0.90;;;14.30;74.60;;;;;;4976326;28;20050;-74
2022/09/03 02:33:14;;;;;;;0.70;0.68;;;14.30;74.70;;;;;;4976400;28;20041;-74
2022/09/03 02:35:40;;;;;;;1.60;0.77;;;14.20;74.70;;;;;;4959786;28;20085;-74
2022/09/03 02:38:15;;;;;;;1.58;1.00;;;14.20;74.90;;;;;;4975229;28;20034;-74
2022/09/03 02:40:41;;;;;;;1.35;0.82;;;14.30;75.20;;;;;;4959334;28;20038;-74
2022/09/03 02:43:13;;;;;;;0.80;0.70;;;14.30;75.40;;;;;;4976296;28;20507;-74
2022/09/03 02:45:47;;;;;;;1.10;0.98;;;14.30;75.30;;;;;;4975413;28;20088;-74
2022/09/03 02:48:17;;;;;;;0.70;0.70;;;14.30;75.20;;;;;;4974902;28;20072;-74
2022/09/03 02:50:43;;;;;;;1.00;0.80;;;14.30;75.20;;;;;;4982831;28;20512;-74
2022/09/03 02:53:09;;;;;;;0.85;0.75;;;14.30;75.20;;;;;;4975042;28;20038;-74
2022/09/03 02:55:35;;;;;;;1.05;0.80;;;14.40;75.20;;;;;;4975671;28;20066;-74
2022/09/03 02:58:00;;;;;;;1.25;0.82;;;14.40;75.10;;;;;;4976014;28;20548;-74
2022/09/03 03:00:27;;;;;;;1.60;0.90;;;14.50;75.10;;;;;;4956003;28;20043;-74
2022/09/03 03:02:54;;;;;;;1.88;0.73;;;14.50;75.00;;;;;;4978077;28;20076;-74
2022/09/03 03:05:41;;;;;;;0.80;0.80;;;14.50;75.00;;;;;;4986536;28;20488;-74
2022/09/03 03:08:07;;;;;;;0.75;0.70;;;14.50;74.80;;;;;;4969369;28;20092;-74
2022/09/03 03:10:34;;;;;;;0.85;0.80;;;14.60;74.70;;;;;;4975670;28;20112;-74
2022/09/03 03:12:59;;;;;;;1.10;0.80;;;14.60;74.70;;;;;;4975600;28;20567;-74
2022/09/03 03:15:27;;;;;;;0.68;0.68;;;14.60;74.70;;;;;;4973736;28;20078;-74
2022/09/03 03:17:56;;;;;;;1.27;0.80;;;14.60;74.60;;;;;;4973711;28;20404;-74
2022/09/03 03:20:21;;;;;;;0.90;0.70;;;14.60;74.60;;;;;;4975449;28;20050;-74
2022/09/03 03:22:47;;;;;;;0.68;0.60;;;14.60;74.50;;;;;;4968687;28;20041;-74
2022/09/03 03:25:13;;;;;;;1.02;0.63;;;14.60;74.50;;;;;;4973335;28;20042;-74
2022/09/03 03:27:40;;;;;;;0.88;0.68;;;14.60;74.50;;;;;;4958144;28;20043;-74
2022/09/03 03:30:08;;;;;;;0.80;0.70;;;14.60;74.60;;;;;;4978556;28;20431;-74
2022/09/03 03:32:35;;;;;;;0.60;0.60;;;14.60;74.50;;;;;;4986710;28;20324;-74
2022/09/03 03:35:00;;;;;;;0.80;0.80;;;14.60;74.50;;;;;;4975099;28;20043;-74
2022/09/03 03:37:26;;;;;;;0.60;0.60;;;14.60;74.60;;;;;;4974811;28;20045;-74
2022/09/03 03:39:51;;;;;;;1.35;0.77;;;14.60;74.50;;;;;;4975415;28;20129;-74
2022/09/03 03:42:17;;;;;;;0.70;0.70;;;14.50;74.40;;;;;;4975462;28;20047;-74
2022/09/03 03:44:42;;;;;;;1.52;0.80;;;14.50;74.50;;;;;;4973027;28;20042;-74
2022/09/03 03:47:08;;;;;;;0.70;0.70;;;14.50;74.60;;;;;;4974135;28;20395;-74
2022/09/03 03:49:34;;;;;;;0.80;0.70;;;14.50;75.00;;;;;;4975013;28;20031;-74
2022/09/03 03:52:01;;;;;;;0.68;0.60;;;14.50;74.80;;;;;;4974833;28;20038;-74
2022/09/03 03:54:27;;;;;;;1.67;0.75;;;14.50;74.80;;;;;;4973435;28;20121;-74
2022/09/03 03:56:53;;;;;;;1.17;0.70;;;14.50;74.70;;;;;;4958565;28;20177;-74
2022/09/03 03:59:18;;;;;;;1.35;0.80;;;14.50;74.90;;;;;;4974924;28;20038;-74
2022/09/03 04:01:44;;;;;;;1.00;0.80;;;14.50;75.00;;;;;;4973931;28;20042;-74
2022/09/03 04:04:09;;;;;;;0.70;0.70;;;14.40;75.00;;;;;;4973975;28;20061;-74
2022/09/03 04:06:35;;;;;;;0.95;0.80;;;14.40;75.20;;;;;;4974775;28;20129;-74
2022/09/03 04:09:00;;;;;;;0.70;0.70;;;14.40;75.30;;;;;;4981555;28;20429;-74
2022/09/03 04:11:26;;;;;;;0.90;0.80;;;14.40;75.40;;;;;;4990522;28;20046;-74
2022/09/03 04:13:52;;;;;;;1.13;0.90;;;14.30;75.60;;;;;;4988992;28;20472;-74
2022/09/03 04:16:20;;;;;;;1.05;0.80;;;14.20;75.50;;;;;;4974620;28;20038;-74
2022/09/03 04:18:48;;;;;;;0.90;0.80;;;14.20;75.60;;;;;;4958357;28;20042;-74
2022/09/03 04:21:19;;;;;;;1.63;0.80;;;14.10;75.80;;;;;;4973507;28;20042;-74
2022/09/03 04:23:46;;;;;;;1.30;0.82;;;14.20;76.00;;;;;;4971661;28;20050;-74
2022/09/03 04:26:15;;;;;;;1.67;0.85;;;14.10;75.90;;;;;;4974434;28;20102;-74
2022/09/03 04:28:41;;;;;;;1.80;0.90;;;14.10;76.10;;;;;;4973485;28;20085;-74
2022/09/03 04:31:09;;;;;;;1.00;0.90;;;14.10;76.10;;;;;;4974552;28;20043;-75
2022/09/03 04:33:38;;;;;;;1.13;0.93;;;14.10;76.10;;;;;;4973190;28;20038;-74
2022/09/03 04:36:06;;;;;;;2.28;0.77;;;14.00;76.20;;;;;;4990518;28;20035;-73
2022/09/03 04:38:36;;;;;;;1.10;0.90;;;14.00;76.20;;;;;;4973233;28;20224;-74
2022/09/03 04:41:03;;;;;;;0.98;0.80;;;14.00;76.50;;;;;;4955099;28;20042;-74
2022/09/03 04:43:29;;;;;;;1.17;0.80;;;14.00;76.60;;;;;;4973848;28;20125;-74
2022/09/03 04:46:03;;;;;;;2.42;0.98;;;13.90;76.60;;;;;;4974681;28;20493;-74
2022/09/03 04:48:30;;;;;;;1.13;0.70;;;13.90;76.60;;;;;;4957357;28;20046;-74
2022/09/03 04:51:12;;;;;;;0.80;0.80;;;13.90;76.70;;;;;;4969921;28;20034;-74
2022/09/03 04:53:43;;;;;;;0.90;0.80;;;13.80;76.80;;;;;;4992709;28;20038;-74
2022/09/03 04:56:20;;;;;;;2.10;0.90;;;13.80;77.00;;;;;;4971202;28;20302;-74
2022/09/03 04:58:47;;;;;;;0.77;0.77;;;13.80;77.00;;;;;;4960036;28;20506;-74
2022/09/03 05:01:18;;;;;;;0.77;0.70;;;13.70;77.10;;;;;;4954288;28;20050;-74
2022/09/03 05:03:44;;;;;;;0.73;0.70;;;13.80;77.40;;;;;;4959317;28;20053;-74
2022/09/03 05:06:11;;;;;;;1.20;0.80;;;13.70;77.70;;;;;;4977976;28;20046;-74
2022/09/03 05:08:36;;;;;;;0.75;0.70;;;13.70;77.50;;;;;;4977996;28;20432;-73
2022/09/03 05:11:03;;;;;;;0.82;0.82;;;13.70;77.90;;;;;;4975650;28;20122;-74
2022/09/03 05:13:30;;;;;;;1.35;1.00;;;13.70;78.00;;;;;;4976091;28;20051;-74
2022/09/03 05:16:00;;;;;;;0.65;0.65;;;13.60;78.10;;;;;;4985626;28;20034;-74
2022/09/03 05:18:26;;;;;;;1.83;1.00;;;13.60;78.50;;;;;;4961353;28;20390;-74
2022/09/03 05:20:59;;;;;;;1.83;0.93;;;13.60;78.60;;;;;;4975560;28;20125;-74
2022/09/03 05:23:29;;;;;;;;;;;13.60;78.80;;;;;;4976927;28;20043;-74
2022/09/03 05:26:01;;;;;;;1.05;0.93;;;13.60;79.00;;;;;;4971688;28;19925;-74
2022/09/03 05:28:29;;;;;;;0.80;0.80;;;13.60;78.90;;;;;;4989416;28;20492;-74
2022/09/03 05:31:20;;;;;;;1.08;0.70;;;13.60;79.30;;;;;;4975473;28;20489;-74
2022/09/03 05:33:50;;;;;;;1.00;0.80;;;13.60;79.30;;;;;;4977575;28;20038;-74
2022/09/03 05:36:19;;;;;;;1.30;0.80;;;13.50;79.30;;;;;;4975998;28;20050;-73
2022/09/03 05:38:46;;;;;;;0.98;0.90;;;13.60;79.60;;;;;;4970923;28;20085;-74
2022/09/03 05:41:13;;;;;;;1.13;0.80;;;13.60;79.80;;;;;;4974804;28;20082;-74
2022/09/03 05:43:39;;;;;;;0.93;0.90;;;13.60;79.80;;;;;;4977196;28;20046;-73
2022/09/03 05:46:14;;;;;;;1.00;0.90;;;13.50;79.70;;;;;;4977509;28;20073;-74
2022/09/03 05:48:40;;;;;;;0.70;0.70;;;13.60;80.00;;;;;;4965846;28;20053;-74
2022/09/03 05:51:15;;;;;;;1.35;0.93;;;13.60;80.20;;;;;;4976915;28;20034;-74
2022/09/03 05:53:43;;;;;;;1.10;0.75;;;13.60;80.20;;;;;;4994787;28;20121;-74
2022/09/03 05:56:11;;;;;;;1.02;0.80;;;13.60;80.40;;;;;;4996706;28;20615;-74
2022/09/03 05:58:40;;;;;;;1.08;0.90;;;13.70;80.40;;;;;;4976396;28;20046;-73
2022/09/03 06:01:14;;;;;;;1.10;0.70;;;13.70;80.50;;;;;;4973752;28;20031;-74
2022/09/03 06:03:40;;;;;;;1.83;0.88;;;13.70;80.40;;;;;;4960723;28;20086;-73
2022/09/03 06:06:07;;;;;;;1.15;0.90;;;13.70;80.40;;;;;;4975309;28;20034;-74
2022/09/03 06:08:33;;;;;;;1.45;1.00;;;13.80;80.50;;;;;;5000619;28;20417;-73
2022/09/03 06:11:00;;;;;;;1.20;0.82;;;13.80;80.50;;;;;;4986727;28;20552;-73
2022/09/03 06:13:26;;;;;;;1.00;0.90;;;13.90;80.60;;;;;;4976021;28;20035;-75
2022/09/03 06:16:04;;;;;;;2.63;1.00;;;13.90;81.40;;;;;;4977782;28;20072;-74
2022/09/03 06:18:30;;;;;;;0.98;0.98;;;14.00;80.40;;;;;;4976382;28;20086;-74
2022/09/03 06:20:57;;;;;;;1.77;0.95;;;14.00;80.60;;;;;;4958645;28;20050;-74
2022/09/03 06:23:24;;;;;;;1.05;0.80;;;14.10;80.50;;;;;;4976395;28;20042;-74
2022/09/03 06:25:59;;;;;;;0.82;0.80;;;14.10;80.60;;;;;;4978355;28;20527;-73
2022/09/03 06:28:26;;;;;;;1.95;1.10;;;14.20;80.60;;;;;;4987831;28;20389;-73
2022/09/03 06:30:52;;;;;;;1.25;0.90;;;14.20;80.40;;;;;;4977521;28;20100;-73
2022/09/03 06:33:17;;;;;;;1.20;1.02;;;14.30;80.30;;;;;;4960461;28;20042;-74
2022/09/03 06:35:44;;;;;;;1.60;1.00;;;14.40;80.30;;;;;;4976299;28;20045;-74
2022/09/03 06:38:12;;;;;;;1.35;1.00;;;14.50;80.00;;;;;;4971934;28;20504;-73
2022/09/03 06:40:38;;;;;;;1.17;1.05;;;14.60;79.80;;;;;;4975276;28;20437;-74
2022/09/03 06:43:04;;;;;;;1.83;1.02;;;14.70;79.70;;;;;;4973209;28;20041;-73
2022/09/03 06:45:29;;;;;;;1.73;1.00;;;14.70;79.70;;;;;;4976072;28;20078;-74
2022/09/03 06:47:55;;;;;;;0.90;0.90;;;14.80;79.60;;;;;;4976014;28;20042;-74
2022/09/03 06:50:21;;;;;;;0.95;0.82;;;14.90;79.60;;;;;;4974125;28;20039;-73
2022/09/03 06:52:53;;;;;;;1.70;1.10;;;15.00;79.20;;;;;;4967563;28;20046;-75
2022/09/03 06:55:20;;;;;;;0.80;0.80;;;15.00;78.90;;;;;;4982627;28;20050;-74
2022/09/03 06:57:46;;;;;;;1.50;1.02;;;15.00;78.70;;;;;;4983081;28;20042;-74
2022/09/03 07:00:12;;;;;;;1.45;1.10;;;15.10;78.70;;;;;;4971995;28;20042;-74
2022/09/03 07:02:40;;;;;;;1.08;0.98;;;15.20;78.50;;;;;;4972134;28;20038;-74
2022/09/03 07:05:07;;;;;;;1.50;1.00;;;15.30;78.30;;;;;;4954401;28;20177;-75
2022/09/03 07:07:32;;;;;;;1.85;1.00;;;15.40;78.20;;;;;;4970374;28;20064;-75
2022/09/03 07:09:58;;;;;;;1.35;0.90;;;15.50;78.20;;;;;;4977743;28;20512;-72
2022/09/03 07:12:25;;;;;;;1.92;1.20;;;15.60;78.10;;;;;;4973249;28;20481;-74
2022/09/03 07:14:50;;;;;;;1.05;0.90;;;15.60;77.60;;;;;;4976307;28;20069;-74
2022/09/03 07:17:16;;;;;;;1.20;1.10;;;15.80;77.50;;;;;;4975331;28;20050;-74
2022/09/03 07:19:41;;;;;;;2.85;1.05;;;15.90;77.00;;;;;;4973438;28;20421;-74
2022/09/03 07:22:08;;;;;;;1.67;1.00;;;16.00;76.70;;;;;;4975625;28;20129;-74
2022/09/03 07:24:36;;;;;;;1.00;0.90;;;16.10;76.70;;;;;;4974341;28;20129;-74
2022/09/03 07:27:23;;;;;;;1.10;0.90;;;16.20;76.50;;;;;;5011152;23;20050;-79
2022/09/03 07:34:23;;;;;;;;;;;;;;;;;;;;;
2022/09/03 07:37:26;;;;;;;2.00;1.00;;;16.50;75.20;;;;;;4948870;28;20141;-80
2022/09/03 11:21:48;;;;;;;0.70;0.70;;;28.80;43.00;;;;;;5917994;23;20434;-81
2022/09/03 11:24:31;;;;;;;0.82;0.73;;;28.80;43.10;;;;;;4970983;28;20086;-82
2022/09/03 11:31:20;;;;;;;0.40;0.40;;;28.80;43.10;;;;;;4959224;28;20074;-81
2022/09/03 11:33:53;;;;;;;2.45;0.70;;;28.70;41.90;;;;;;4978365;23;20146;-80
2022/09/03 11:36:31;;;;;;;0.60;0.60;;;28.70;42.90;;;;;;4978841;28;20081;-80
2022/09/03 11:38:57;;;;;;;0.60;0.60;;;28.80;42.80;;;;;;4971120;28;20513;-79
2022/09/03 11:41:34;;;;;;;0.80;0.60;;;29.10;41.80;;;;;;4989493;28;20132;-79
2022/09/03 11:44:19;;;;;;;1.20;0.55;;;29.20;41.90;;;;;;4979360;28;20462;-78
2022/09/03 11:46:57;;;;;;;0.68;0.60;;;29.20;40.90;;;;;;4972072;28;20049;-79
2022/09/03 11:49:32;;;;;;;0.85;0.63;;;29.30;42.30;;;;;;4981304;28;20550;-78
2022/09/03 11:52:08;;;;;;;1.77;0.73;;;29.80;41.60;;;;;;4983287;28;20058;-78
2022/09/03 11:54:44;;;;;;;0.57;0.57;;;29.90;41.30;;;;;;4983145;28;20065;-79
2022/09/03 11:57:21;;;;;;;0.60;0.60;;;29.90;41.70;;;;;;4982400;28;20088;-78
2022/09/03 11:59:47;;;;;;;1.25;0.60;;;30.00;41.00;;;;;;5001495;28;20120;-78
2022/09/03 12:02:29;;;;;;;0.60;0.60;;;30.00;41.10;;;;;;4960413;28;20576;-78
2022/09/03 12:05:04;;;;;;;0.87;0.53;;;30.00;40.10;;;;;;4978341;28;20139;-78
2022/09/03 12:07:39;;;;;;;0.75;0.60;;;29.70;39.70;;;;;;4982248;28;20300;-78
2022/09/03 12:10:31;;;;;;;0.50;0.50;;;29.40;41.00;;;;;;4994229;28;20125;-77
2022/09/03 12:13:29;;;;;;;1.17;0.70;;;29.30;40.10;;;;;;4989118;28;20520;-79
2022/09/03 12:16:16;;;;;;;0.90;0.65;;;29.30;41.20;;;;;;5005442;23;20140;-77
2022/09/03 12:18:44;;;;;;;0.50;0.50;;;29.70;40.50;;;;;;4994193;28;20069;-79
2022/09/03 12:21:11;;;;;;;0.98;0.70;;;29.80;40.60;;;;;;5005114;28;20121;-79
2022/09/03 12:23:41;;;;;;;0.80;0.68;;;30.00;41.60;;;;;;4996530;28;20502;-78
2022/09/03 12:26:16;;;;;;;1.25;0.57;;;30.40;40.80;;;;;;5008252;28;20034;-78
2022/09/03 12:28:47;;;;;;;0.65;0.60;;;30.40;40.20;;;;;;5041090;23;20113;-75
2022/09/03 12:31:24;;;;;;;0.52;0.52;;;30.50;40.40;;;;;;4961740;28;20034;-75
2022/09/03 12:34:02;;;;;;;0.65;0.50;;;30.50;40.10;;;;;;4988207;28;20447;-75
2022/09/03 12:36:38;;;;;;;0.82;0.60;;;30.50;41.20;;;;;;4987988;28;20454;-75
2022/09/03 12:39:12;;;;;;;2.92;0.60;;;30.90;40.60;;;;;;4984110;28;20044;-75
2022/09/03 12:41:51;;;;;;;0.75;0.60;;;31.30;40.90;;;;;;4983387;28;20500;-75
2022/09/03 12:44:25;;;;;;;0.55;0.52;;;31.40;39.40;;;;;;4967421;28;20042;-75
2022/09/03 12:47:00;;;;;;;1.80;0.73;;;31.40;40.30;;;;;;5001110;28;20041;-75
2022/09/03 12:49:26;;;;;;;0.57;0.50;;;31.60;40.50;;;;;;4989952;28;20100;-75
2022/09/03 12:52:00;;;;;;;0.73;0.63;;;31.80;40.60;;;;;;4992791;28;20034;-75
2022/09/03 12:54:27;;;;;;;0.70;0.50;;;32.00;39.20;;;;;;4960190;28;20030;-76
2022/09/03 12:57:01;;;;;;;1.05;0.50;;;31.90;39.40;;;;;;4976971;28;20034;-77
2022/09/03 12:59:31;;;;;;;1.58;0.60;;;31.70;39.00;;;;;;5006699;28;20065;-75
2022/09/03 13:02:02;;;;;;;0.43;0.40;;;31.40;39.00;;;;;;4988081;28;20175;-76
2022/09/03 13:04:33;;;;;;;1.15;0.60;;;31.10;38.50;;;;;;4984771;28;20100;-76
2022/09/03 13:07:02;;;;;;;0.60;0.55;;;30.50;39.70;;;;;;4981312;28;20126;-76
2022/09/03 13:09:32;;;;;;;1.50;0.60;;;30.10;40.60;;;;;;4980309;28;20535;-76
2022/09/03 13:12:04;;;;;;;2.35;0.80;;;30.00;40.80;;;;;;4984719;28;20042;-76
2022/09/03 13:14:46;;;;;;;0.80;0.63;;;29.90;41.30;;;;;;4989153;28;20050;-76
2022/09/03 13:17:21;;;;;;;0.60;0.50;;;29.90;41.10;;;;;;4983884;28;20076;-76
2022/09/03 13:20:09;;;;;;;0.52;0.52;;;29.90;41.10;;;;;;4981834;28;20038;-76
2022/09/03 13:22:44;;;;;;;0.82;0.50;;;30.10;40.80;;;;;;4979567;28;20057;-76
2022/09/03 13:25:41;;;;;;;1.58;0.60;;;30.20;40.60;;;;;;5004851;28;20033;-76
2022/09/03 13:28:47;;;;;;;0.70;0.50;;;30.30;40.40;;;;;;4962838;28;20409;-77
2022/09/03 13:31:22;;;;;;;1.77;0.70;;;30.10;39.80;;;;;;4948740;28;20038;-76
2022/09/03 13:33:53;;;;;;;2.05;0.60;;;29.70;40.80;;;;;;4977688;28;20030;-75
2022/09/03 13:36:35;;;;;;;0.80;0.68;;;29.50;41.30;;;;;;4983912;28;20070;-76
2022/09/03 13:39:05;;;;;;;0.60;0.60;;;29.50;41.90;;;;;;4962190;28;20488;-76
2022/09/03 13:41:35;;;;;;;0.60;0.57;;;29.80;41.10;;;;;;4985575;28;20116;-76
2022/09/03 13:44:06;;;;;;;1.60;0.70;;;29.90;40.30;;;;;;4975743;28;20045;-76
2022/09/03 13:46:59;;;;;;;0.47;0.47;;;29.70;40.70;;;;;;4976688;28;20452;-76
2022/09/03 13:52:57;;;;;;;0.93;0.63;;;30.10;40.80;;;;;;4975406;28;20049;-76
2022/09/03 13:55:30;;;;;;;1.25;0.60;;;30.00;40.80;;;;;;4976132;28;20046;-75
2022/09/03 13:57:58;;;;;;;;;;;29.80;41.00;;;;;;4956464;28;20096;-76
2022/09/03 14:00:23;;;;;;;3.10;0.80;;;29.80;41.40;;;;;;4976198;28;20036;-76
2022/09/03 14:03:02;;;;;;;0.57;0.50;;;29.90;41.30;;;;;;4953581;28;20496;-76
2022/09/03 14:05:59;;;;;;;1.10;0.68;;;29.90;40.40;;;;;;4977362;28;20046;-76
2022/09/03 14:08:52;;;;;;;1.23;0.70;;;29.60;41.90;;;;;;4982813;28;20038;-76
2022/09/03 14:11:17;;;;;;;0.73;0.60;;;29.30;40.80;;;;;;4968192;28;20508;-75
2022/09/03 14:13:48;;;;;;;0.90;0.55;;;29.00;41.20;;;;;;4978997;28;20042;-75
2022/09/03 14:16:39;;;;;;;0.63;0.60;;;29.10;42.50;;;;;;4987919;28;20029;-75
2022/09/03 14:19:37;;;;;;;0.98;0.60;;;29.40;42.20;;;;;;4971704;28;20047;-75
2022/09/03 14:22:28;;;;;;;0.50;0.50;;;29.60;42.00;;;;;;4940106;28;20046;-76
2022/09/03 14:25:11;;;;;;;1.00;0.50;;;29.80;40.80;;;;;;4984795;28;20037;-76
2022/09/03 14:27:37;;;;;;;1.02;0.80;;;29.40;40.90;;;;;;4981063;28;20065;-77
2022/09/03 14:30:27;;;;;;;0.60;0.57;;;29.00;40.80;;;;;;4981343;28;20488;-76
2022/09/03 14:33:23;;;;;;;0.77;0.50;;;28.40;41.20;;;;;;4984713;28;20056;-75
2022/09/03 14:36:17;;;;;;;2.25;0.60;;;27.70;42.60;;;;;;4985193;28;20038;-75
2022/09/03 14:39:13;;;;;;;0.50;0.45;;;27.40;44.00;;;;;;4976146;28;20070;-75
2022/09/03 14:42:09;;;;;;;0.70;0.52;;;27.30;44.40;;;;;;4983504;28;20042;-75
2022/09/03 14:45:11;;;;;;;1.15;0.60;;;27.20;44.20;;;;;;4991661;28;20381;-76
2022/09/03 14:47:49;;;;;;;0.88;0.50;;;27.10;44.70;;;;;;4980694;28;20038;-76
2022/09/03 14:50:41;;;;;;;1.13;0.75;;;27.00;43.90;;;;;;4964927;28;20046;-76
2022/09/03 14:53:44;;;;;;;1.40;0.75;;;27.00;43.80;;;;;;4976306;28;20400;-76
2022/09/03 14:56:24;;;;;;;0.63;0.63;;;26.80;43.90;;;;;;4966602;28;20394;-75
2022/09/03 14:59:05;;;;;;;1.42;0.80;;;26.70;44.40;;;;;;4975186;28;20064;-75
2022/09/03 15:01:35;;;;;;;0.98;0.85;;;26.70;45.70;;;;;;4962666;28;20049;-75
2022/09/03 15:04:13;;;;;;;1.48;0.77;;;26.60;44.90;;;;;;4963183;28;20038;-76
2022/09/03 15:07:03;;;;;;;0.85;0.70;;;26.60;45.10;;;;;;4977750;28;20046;-76
2022/09/03 15:09:41;;;;;;;0.60;0.60;;;26.50;45.20;;;;;;4975533;28;20571;-76
2022/09/03 15:12:13;;;;;;;0.80;0.80;;;26.40;45.00;;;;;;4975845;28;20504;-76
2022/09/03 15:14:52;;;;;;;1.15;0.80;;;26.40;45.30;;;;;;4976030;28;20441;-75
2022/09/03 15:17:27;;;;;;;0.77;0.73;;;26.30;45.10;;;;;;4979956;28;20120;-77
2022/09/03 15:20:22;;;;;;;0.85;0.70;;;26.30;44.80;;;;;;4987428;28;20081;-74
2022/09/03 15:23:19;;;;;;;1.27;0.70;;;26.30;45.10;;;;;;4995330;28;20042;-74
2022/09/03 15:26:08;;;;;;;0.93;0.82;;;26.20;45.10;;;;;;4995327;28;20045;-75
2022/09/03 15:29:04;;;;;;;1.05;0.70;;;26.10;45.00;;;;;;4978900;28;20084;-76
2022/09/03 15:31:57;;;;;;;0.75;0.70;;;26.10;45.50;;;;;;4965907;28;20058;-76
2022/09/03 15:34:32;;;;;;;1.05;0.70;;;26.00;45.30;;;;;;4987265;28;20429;-76
2022/09/03 15:37:03;;;;;;;0.60;0.60;;;25.90;46.40;;;;;;4967698;28;20035;-76
2022/09/03 15:39:36;;;;;;;0.82;0.63;;;25.80;46.40;;;;;;4974454;28;20039;-76
2022/09/03 15:42:25;;;;;;;0.95;0.80;;;25.70;46.30;;;;;;4961439;28;20041;-76
2022/09/03 15:44:54;;;;;;;0.80;0.80;;;25.70;46.10;;;;;;4975329;28;20413;-76
2022/09/03 15:47:44;;;;;;;1.20;0.70;;;25.60;46.10;;;;;;4974666;28;20050;-75
2022/09/03 15:50:24;;;;;;;1.02;0.88;;;25.60;46.10;;;;;;4955529;28;20038;-76
2022/09/03 15:53:05;;;;;;;1.35;0.98;;;25.60;46.40;;;;;;4975117;28;20066;-76
2022/09/03 15:55:36;;;;;;;1.50;0.70;;;25.70;46.40;;;;;;4973651;28;20038;-76
2022/09/03 15:58:09;;;;;;;0.73;0.73;;;25.70;46.30;;;;;;4972837;28;20038;-76
2022/09/03 16:00:44;;;;;;;0.80;0.77;;;25.70;46.10;;;;;;4973156;28;20049;-76
2022/09/03 16:03:15;;;;;;;1.58;0.98;;;25.60;46.10;;;;;;4974895;28;20038;-76
2022/09/03 16:05:54;;;;;;;1.65;0.90;;;25.60;46.10;;;;;;4959010;28;20042;-76
2022/09/03 16:08:45;;;;;;;0.98;0.88;;;25.60;46.30;;;;;;4956662;28;20042;-75
2022/09/03 16:11:53;;;;;;;1.75;0.80;;;25.60;46.60;;;;;;4969156;28;20045;-76
2022/09/03 16:14:43;;;;;;;0.63;0.63;;;25.50;46.30;;;;;;4947800;28;20531;-76
2022/09/03 16:17:38;;;;;;;0.70;0.70;;;25.40;46.50;;;;;;4952751;28;20487;-75
2022/09/03 16:20:41;;;;;;;0.65;0.65;;;25.40;47.00;;;;;;4974982;28;20038;-76
2022/09/03 16:23:15;;;;;;;0.60;0.60;;;25.40;46.80;;;;;;4974465;28;20053;-75
2022/09/03 16:26:08;;;;;;;1.33;0.70;;;25.40;46.80;;;;;;4975071;28;20404;-75
2022/09/03 16:28:40;;;;;;;0.52;0.52;;;25.30;47.00;;;;;;4974495;28;20117;-75
2022/09/03 16:31:12;;;;;;;1.93;0.70;;;25.20;46.90;;;;;;4974992;28;20069;-76
2022/09/03 16:34:03;;;;;;;0.60;0.60;;;25.20;47.50;;;;;;4958760;28;20806;-76
2022/09/03 16:36:50;;;;;;;1.00;0.70;;;25.10;47.50;;;;;;4974993;28;20325;-75
2022/09/03 16:39:37;;;;;;;0.88;0.82;;;25.10;47.60;;;;;;4973745;28;20121;-76
2022/09/03 16:42:23;;;;;;;1.80;0.80;;;25.10;47.90;;;;;;4955664;28;20043;-76
2022/09/03 16:45:17;;;;;;;1.20;0.90;;;25.00;48.00;;;;;;4955437;28;20047;-76
2022/09/03 16:48:10;;;;;;;0.98;0.80;;;24.90;48.30;;;;;;4943130;28;20101;-75
2022/09/03 16:51:07;;;;;;;0.70;0.70;;;24.90;48.40;;;;;;4957643;28;20101;-76
2022/09/03 16:54:07;;;;;;;2.22;0.75;;;24.90;48.70;;;;;;4974814;28;20042;-76
2022/09/03 16:56:59;;;;;;;0.75;0.70;;;24.80;48.80;;;;;;4958585;28;20097;-76
2022/09/03 16:59:45;;;;;;;1.42;0.80;;;24.70;48.70;;;;;;4975265;28;20046;-76
2022/09/03 17:02:29;;;;;;;1.23;0.75;;;24.70;48.80;;;;;;4961160;28;20096;-76
2022/09/03 17:05:16;;;;;;;0.70;0.65;;;24.70;48.90;;;;;;4970589;28;20065;-75
2022/09/03 17:07:59;;;;;;;0.80;0.77;;;24.60;49.10;;;;;;4977328;28;20046;-76
2022/09/03 17:10:50;;;;;;;1.77;0.95;;;24.60;49.30;;;;;;4961875;28;20104;-76
2022/09/03 17:13:31;;;;;;;2.17;0.73;;;24.50;49.60;;;;;;4962049;28;20141;-76
2022/09/03 17:16:26;;;;;;;1.00;0.88;;;24.50;49.70;;;;;;4970741;28;20034;-76
2022/09/03 17:19:36;;;;;;;2.83;0.90;;;24.40;49.90;;;;;;4961842;28;20046;-76
2022/09/03 17:22:10;;;;;;;0.95;0.80;;;24.30;50.20;;;;;;4973179;28;20561;-76
2022/09/03 17:24:52;;;;;;;1.15;0.75;;;24.20;50.20;;;;;;4962038;28;20525;-76
2022/09/03 17:27:39;;;;;;;1.13;0.90;;;24.20;50.40;;;;;;4977650;28;20088;-75
2022/09/03 17:30:08;;;;;;;1.35;1.00;;;24.10;50.70;;;;;;4976163;28;20043;-75